Time;durP1;ratioP1;P1;durP2;ratioP2;P2;SDS_P1;SDS_P2;PMS_P1;PMS_P2;Temp;Humidity;BMP_temperature;BMP_pressure;BME280_temperature;BME280_humidity;BME280_pressure;Samples;Min_cycle;Max_cycle;Signal;HPM_P1;HPM_P2
2023/06/01 00:01:56;;;;;;;7.22;4.38;;;14.80;74.40;;;;;;5117605;27;20035;-78
2023/06/01 00:04:22;;;;;;;14.43;4.78;;;14.80;74.50;;;;;;5118693;27;20028;-78
2023/06/01 00:06:48;;;;;;;8.93;4.78;;;14.70;74.20;;;;;;5117030;27;20383;-77
2023/06/01 00:09:14;;;;;;;9.32;4.40;;;14.70;74.10;;;;;;5097480;27;20035;-77
2023/06/01 00:11:40;;;;;;;7.20;3.90;;;14.70;74.10;;;;;;5117253;27;20042;-77
2023/06/01 00:14:06;;;;;;;5.43;4.13;;;14.70;74.10;;;;;;5116844;27;20035;-77
2023/06/01 00:16:32;;;;;;;11.05;4.55;;;14.70;74.50;;;;;;5117631;27;20268;-77
2023/06/01 00:19:00;;;;;;;9.38;4.60;;;14.60;74.60;;;;;;5131316;27;20031;-77
2023/06/01 00:21:27;;;;;;;8.13;4.10;;;14.60;74.50;;;;;;5098223;28;20046;-77
2023/06/01 00:23:53;;;;;;;7.20;3.80;;;14.70;74.50;;;;;;5115969;27;20040;-76
2023/06/01 00:26:19;;;;;;;8.90;4.40;;;14.70;74.70;;;;;;5117704;27;20490;-77
2023/06/01 00:28:49;;;;;;;7.35;4.25;;;14.60;74.60;;;;;;5116485;27;20031;-76
2023/06/01 00:31:15;;;;;;;6.15;3.92;;;14.70;74.60;;;;;;5117142;27;20024;-77
2023/06/01 00:33:41;;;;;;;17.70;4.18;;;14.60;74.50;;;;;;5098396;27;20436;-77
2023/06/01 00:36:07;;;;;;;7.45;3.97;;;14.60;74.60;;;;;;5116145;27;20031;-77
2023/06/01 00:38:33;;;;;;;7.88;3.97;;;14.60;74.60;;;;;;5098021;27;20032;-77
2023/06/01 00:41:00;;;;;;;9.43;4.45;;;14.60;74.50;;;;;;5116617;27;20092;-77
2023/06/01 00:43:26;;;;;;;8.80;4.10;;;14.60;74.40;;;;;;5097899;27;20035;-78
2023/06/01 00:45:53;;;;;;;7.60;4.00;;;14.50;74.40;;;;;;5097607;27;20964;-77
2023/06/01 00:48:20;;;;;;;9.68;3.88;;;14.50;74.70;;;;;;5086603;27;20122;-76
2023/06/01 00:50:47;;;;;;;8.70;4.40;;;14.50;74.60;;;;;;5117203;27;20055;-76
2023/06/01 00:53:18;;;;;;;6.68;3.53;;;14.50;74.40;;;;;;5096941;27;20418;-76
2023/06/01 00:55:46;;;;;;;8.43;4.10;;;14.50;74.40;;;;;;5097546;27;20555;-76
2023/06/01 00:58:13;;;;;;;8.25;3.85;;;14.50;74.30;;;;;;5096201;27;20043;-75
2023/06/01 01:00:43;;;;;;;9.38;4.43;;;14.40;74.60;;;;;;5098104;27;20126;-78
2023/06/01 01:03:10;;;;;;;7.75;4.03;;;14.50;74.50;;;;;;5116601;27;20039;-76
2023/06/01 01:05:37;;;;;;;7.50;3.85;;;14.40;74.20;;;;;;5115926;27;20790;-76
2023/06/01 01:08:28;;;;;;;6.65;3.53;;;14.40;74.20;;;;;;5096820;27;20461;-76
2023/06/01 01:11:19;;;;;;;5.82;3.90;;;14.40;74.20;;;;;;5116480;27;20036;-76
2023/06/01 01:13:50;;;;;;;7.30;4.13;;;14.40;74.00;;;;;;5116555;27;20039;-76
2023/06/01 01:16:36;;;;;;;7.20;4.10;;;14.40;74.20;;;;;;5097376;27;20035;-78
2023/06/01 01:19:12;;;;;;;9.48;4.18;;;14.40;74.20;;;;;;5101952;27;20054;-76
2023/06/01 01:21:50;;;;;;;8.57;4.60;;;14.40;74.20;;;;;;5097547;27;20195;-76
2023/06/01 01:24:42;;;;;;;8.32;4.70;;;14.30;74.10;;;;;;5096727;28;20088;-76
2023/06/01 01:27:37;;;;;;;7.45;4.18;;;14.30;74.40;;;;;;5096891;27;20031;-76
2023/06/01 01:30:05;;;;;;;8.57;4.13;;;14.30;74.40;;;;;;5115604;27;20039;-76
2023/06/01 01:32:32;;;;;;;6.70;3.95;;;14.40;74.20;;;;;;5097160;28;20035;-75
2023/06/01 01:35:00;;;;;;;6.60;4.03;;;14.40;74.30;;;;;;5097473;28;20043;-78
2023/06/01 01:37:26;;;;;;;8.45;3.92;;;14.40;74.20;;;;;;5097235;28;20032;-77
2023/06/01 01:39:52;;;;;;;9.60;4.53;;;14.30;74.10;;;;;;5096652;28;20046;-77
2023/06/01 01:42:18;;;;;;;7.13;4.13;;;14.30;74.00;;;;;;5096987;27;20028;-77
2023/06/01 01:44:46;;;;;;;9.05;4.43;;;14.30;73.90;;;;;;5114033;27;20465;-76
2023/06/01 01:47:25;;;;;;;8.93;4.40;;;14.30;73.70;;;;;;5085084;28;20034;-76
2023/06/01 01:49:59;;;;;;;11.52;4.82;;;14.30;73.70;;;;;;5102811;27;20026;-76
2023/06/01 01:52:34;;;;;;;9.43;3.83;;;14.30;73.80;;;;;;5108304;27;20101;-77
2023/06/01 01:55:02;;;;;;;6.88;4.10;;;14.30;73.80;;;;;;5120354;27;20093;-76
2023/06/01 01:57:30;;;;;;;8.35;4.57;;;14.30;73.70;;;;;;5135599;27;20027;-76
2023/06/01 01:59:57;;;;;;;9.88;4.10;;;14.30;73.90;;;;;;5109311;27;20031;-76
2023/06/01 02:02:23;;;;;;;8.55;4.47;;;14.30;74.00;;;;;;5101313;27;20039;-76
2023/06/01 02:04:49;;;;;;;8.25;4.53;;;14.40;74.10;;;;;;5083128;27;20035;-77
2023/06/01 02:07:16;;;;;;;8.23;4.10;;;14.40;74.00;;;;;;5121140;27;20028;-76
2023/06/01 02:09:42;;;;;;;8.00;4.03;;;14.40;73.90;;;;;;5117974;27;20052;-77
2023/06/01 02:12:10;;;;;;;12.35;4.05;;;14.40;73.60;;;;;;5100401;27;20042;-77
2023/06/01 02:14:37;;;;;;;9.98;4.00;;;14.40;73.60;;;;;;5100908;27;20062;-76
2023/06/01 02:17:03;;;;;;;10.40;4.63;;;14.50;73.60;;;;;;5100250;27;20027;-76
2023/06/01 02:19:29;;;;;;;6.28;3.85;;;14.40;73.80;;;;;;5119925;27;20053;-76
2023/06/01 02:21:56;;;;;;;7.10;4.28;;;14.50;74.10;;;;;;5100636;27;20050;-77
2023/06/01 02:24:22;;;;;;;6.70;4.00;;;14.60;74.10;;;;;;5099968;27;20512;-77
2023/06/01 02:26:51;;;;;;;6.72;3.90;;;14.70;74.30;;;;;;5132160;27;20157;-76
2023/06/01 02:29:21;;;;;;;7.55;3.85;;;14.80;74.10;;;;;;5106219;27;20035;-77
2023/06/01 02:31:48;;;;;;;6.93;4.30;;;14.80;73.70;;;;;;5118732;27;20043;-76
2023/06/01 02:34:15;;;;;;;10.80;4.05;;;14.90;73.90;;;;;;5088642;27;20122;-77
2023/06/01 02:36:41;;;;;;;7.10;3.80;;;15.00;72.90;;;;;;5100508;27;20425;-77
2023/06/01 02:39:08;;;;;;;11.10;4.15;;;15.10;72.40;;;;;;5099857;27;20096;-77
2023/06/01 02:41:34;;;;;;;6.90;4.07;;;15.20;72.00;;;;;;5104356;27;20089;-77
2023/06/01 02:44:01;;;;;;;8.82;4.15;;;15.30;71.70;;;;;;5118940;27;20027;-77
2023/06/01 02:46:27;;;;;;;7.13;4.38;;;15.30;71.60;;;;;;5100887;27;20035;-76
2023/06/01 02:48:53;;;;;;;5.97;3.80;;;15.40;71.80;;;;;;5100671;27;20046;-77
2023/06/01 02:51:19;;;;;;;14.15;4.85;;;15.60;71.70;;;;;;5099386;27;20051;-77
2023/06/01 02:53:48;;;;;;;7.93;4.22;;;15.70;71.30;;;;;;5083431;27;20172;-77
2023/06/01 02:56:15;;;;;;;9.90;4.10;;;15.80;70.90;;;;;;5118673;27;20034;-77
2023/06/01 02:58:42;;;;;;;9.38;3.92;;;15.80;70.40;;;;;;5119525;27;20386;-77
2023/06/01 03:01:26;;;;;;;7.93;3.80;;;15.90;70.30;;;;;;5134565;27;20035;-77
2023/06/01 03:03:52;;;;;;;6.53;3.63;;;16.00;70.00;;;;;;5087498;27;20041;-77
2023/06/01 03:06:21;;;;;;;7.60;4.10;;;16.00;69.20;;;;;;5099959;27;20408;-78
2023/06/01 03:09:02;;;;;;;7.15;4.20;;;16.00;69.00;;;;;;5099702;27;20421;-79
2023/06/01 03:12:04;;;;;;;9.15;3.58;;;16.10;69.40;;;;;;5094647;27;20043;-77
2023/06/01 03:14:31;;;;;;;9.00;4.03;;;16.10;69.30;;;;;;5117952;27;20092;-77
2023/06/01 03:16:57;;;;;;;6.88;3.65;;;16.10;69.20;;;;;;5117439;27;20027;-77
2023/06/01 03:19:24;;;;;;;7.85;4.15;;;16.10;69.60;;;;;;5100448;27;20561;-77
2023/06/01 03:21:53;;;;;;;6.72;3.92;;;16.10;69.40;;;;;;5134079;27;20578;-77
2023/06/01 03:24:27;;;;;;;15.80;4.38;;;16.20;69.30;;;;;;5099005;27;20039;-77
2023/06/01 03:26:54;;;;;;;6.20;3.70;;;16.20;68.70;;;;;;5118349;27;20046;-77
2023/06/01 03:29:21;;;;;;;8.35;3.83;;;16.30;68.40;;;;;;5086560;27;20055;-77
2023/06/01 03:31:47;;;;;;;6.05;3.72;;;16.40;68.50;;;;;;5118482;27;20031;-77
2023/06/01 03:34:15;;;;;;;8.88;3.88;;;16.60;68.30;;;;;;5082718;27;20019;-77
2023/06/01 03:36:41;;;;;;;8.52;3.92;;;16.70;68.10;;;;;;5099635;27;20473;-77
2023/06/01 03:39:09;;;;;;;5.32;3.28;;;16.80;67.60;;;;;;5116677;27;20031;-77
2023/06/01 03:41:37;;;;;;;6.47;3.53;;;16.90;67.00;;;;;;5065029;27;20040;-76
2023/06/01 03:44:04;;;;;;;5.88;2.92;;;17.10;67.00;;;;;;5081460;27;20035;-79
2023/06/01 03:46:30;;;;;;;4.95;3.13;;;17.20;66.50;;;;;;5117615;27;20039;-77
2023/06/01 03:48:56;;;;;;;7.68;3.05;;;17.30;66.20;;;;;;5117953;27;20499;-84
2023/06/01 03:51:22;;;;;;;5.53;3.15;;;17.40;65.90;;;;;;5099113;27;20036;-79
2023/06/01 03:53:48;;;;;;;5.40;2.92;;;17.50;65.80;;;;;;5097917;27;20041;-80
2023/06/01 03:56:15;;;;;;;6.38;2.90;;;17.70;65.60;;;;;;5094858;27;20027;-79
2023/06/01 03:58:42;;;;;;;4.85;3.00;;;17.70;65.30;;;;;;5099295;27;20035;-78
2023/06/01 04:01:11;;;;;;;6.13;3.13;;;17.80;65.00;;;;;;5098730;27;20114;-80
2023/06/01 04:03:39;;;;;;;3.25;2.60;;;18.00;65.00;;;;;;5099742;27;20036;-79
2023/06/01 04:06:11;;;;;;;6.22;2.90;;;18.10;64.90;;;;;;5098296;27;20031;-79
2023/06/01 04:08:48;;;;;;;5.85;2.88;;;18.10;64.70;;;;;;5086472;27;20073;-80
2023/06/01 04:11:16;;;;;;;5.43;2.65;;;18.30;64.50;;;;;;5082896;27;20057;-78
2023/06/01 04:13:43;;;;;;;6.55;2.78;;;18.30;64.30;;;;;;5115932;27;20035;-77
2023/06/01 04:16:10;;;;;;;4.65;2.65;;;18.40;64.00;;;;;;5081045;27;20032;-83
2023/06/01 04:18:37;;;;;;;4.35;2.53;;;18.60;63.50;;;;;;5086345;27;20023;-78
2023/06/01 04:21:04;;;;;;;5.15;3.13;;;18.70;63.30;;;;;;5112854;27;20048;-78
2023/06/01 04:23:30;;;;;;;5.32;3.00;;;18.70;63.10;;;;;;5094896;27;20058;-77
2023/06/01 04:25:59;;;;;;;5.60;2.80;;;18.80;62.40;;;;;;5116630;27;20378;-78
2023/06/01 04:28:29;;;;;;;4.97;2.80;;;18.90;62.30;;;;;;5114631;27;20024;-78
2023/06/01 04:30:56;;;;;;;5.22;2.45;;;19.00;62.30;;;;;;5097035;27;20371;-79
2023/06/01 04:33:24;;;;;;;2.85;2.17;;;19.10;62.10;;;;;;5094720;27;20051;-77
2023/06/01 04:35:54;;;;;;;4.03;2.97;;;19.20;61.90;;;;;;5095295;27;20039;-78
2023/06/01 04:38:24;;;;;;;4.32;2.22;;;19.30;61.70;;;;;;5095169;27;20058;-78
2023/06/01 04:40:53;;;;;;;4.70;2.35;;;19.40;61.80;;;;;;5079525;27;20035;-80
2023/06/01 04:43:20;;;;;;;6.95;1.98;;;19.50;62.00;;;;;;5096849;27;20063;-80
2023/06/01 04:45:46;;;;;;;6.70;2.47;;;19.50;61.40;;;;;;5096375;27;20548;-76
2023/06/01 04:48:14;;;;;;;4.88;2.15;;;19.60;61.40;;;;;;5089008;27;20065;-80
2023/06/01 04:50:52;;;;;;;6.25;2.22;;;19.70;61.30;;;;;;5098699;27;20458;-78
2023/06/01 04:53:19;;;;;;;4.75;2.08;;;19.80;61.00;;;;;;5097929;27;20039;-78
2023/06/01 04:55:45;;;;;;;4.93;2.17;;;19.90;60.70;;;;;;5097477;27;20023;-80
2023/06/01 04:58:11;;;;;;;4.32;2.10;;;20.00;60.60;;;;;;5114565;27;20549;-77
2023/06/01 05:00:37;;;;;;;3.38;1.40;;;20.00;60.20;;;;;;5080647;27;20401;-78
2023/06/01 05:03:04;;;;;;;5.60;1.80;;;20.10;60.10;;;;;;5096750;27;20039;-80
2023/06/01 05:05:30;;;;;;;4.55;2.00;;;20.20;60.00;;;;;;5097143;27;20035;-78
2023/06/01 05:07:57;;;;;;;2.90;1.52;;;20.30;59.90;;;;;;5131932;27;20123;-79
2023/06/01 05:10:23;;;;;;;4.43;2.20;;;20.30;59.80;;;;;;5131841;27;20598;-78
2023/06/01 05:12:49;;;;;;;2.42;1.80;;;20.40;59.50;;;;;;5097377;27;20040;-78
2023/06/01 05:15:17;;;;;;;4.93;1.85;;;20.50;59.70;;;;;;5096795;27;20080;-77
2023/06/01 05:17:43;;;;;;;3.20;2.08;;;20.60;59.20;;;;;;5096846;27;20074;-80
2023/06/01 05:20:13;;;;;;;4.68;2.20;;;20.70;59.30;;;;;;5096647;28;20031;-79
2023/06/01 05:22:42;;;;;;;2.90;2.00;;;20.80;59.20;;;;;;5097590;27;20045;-79
2023/06/01 05:25:09;;;;;;;5.93;2.08;;;20.90;58.90;;;;;;5095855;28;20031;-76
2023/06/01 05:27:36;;;;;;;6.13;1.90;;;20.90;58.70;;;;;;5131156;27;20031;-80
2023/06/01 05:30:03;;;;;;;4.68;1.98;;;21.10;58.60;;;;;;5096832;28;20440;-80
2023/06/01 05:32:30;;;;;;;6.72;2.30;;;21.10;58.30;;;;;;5096755;28;20554;-80
2023/06/01 05:35:04;;;;;;;3.13;2.20;;;21.20;58.00;;;;;;5097511;28;20039;-81
2023/06/01 05:37:30;;;;;;;3.03;2.00;;;21.40;57.50;;;;;;5079799;28;20035;-82
2023/06/01 05:39:56;;;;;;;3.97;1.70;;;21.40;57.90;;;;;;5113978;27;20031;-79
2023/06/01 05:42:22;;;;;;;4.68;2.08;;;21.40;57.50;;;;;;5096535;28;20028;-79
2023/06/01 05:44:48;;;;;;;4.90;2.08;;;21.60;57.50;;;;;;5096070;28;20118;-78
2023/06/01 05:47:14;;;;;;;4.45;2.10;;;21.60;57.00;;;;;;5096261;28;20408;-81
2023/06/01 05:49:41;;;;;;;3.90;2.47;;;21.70;56.70;;;;;;5097011;28;20525;-81
2023/06/01 05:52:09;;;;;;;5.82;2.20;;;21.80;56.60;;;;;;5097644;28;20565;-78
2023/06/01 05:54:35;;;;;;;3.22;2.00;;;21.90;56.90;;;;;;5096789;28;20130;-80
2023/06/01 05:57:02;;;;;;;3.22;2.13;;;22.00;56.60;;;;;;5096695;28;20092;-81
2023/06/01 05:59:28;;;;;;;4.43;2.33;;;22.10;56.50;;;;;;5097006;28;20032;-78
2023/06/01 06:01:54;;;;;;;3.30;2.08;;;22.10;56.50;;;;;;5096961;28;20134;-81
2023/06/01 06:04:21;;;;;;;5.25;2.20;;;22.20;56.20;;;;;;5115999;28;20032;-77
2023/06/01 06:06:47;;;;;;;6.30;2.30;;;22.20;56.40;;;;;;5116579;28;20063;-76
2023/06/01 06:09:15;;;;;;;3.90;2.30;;;22.30;55.90;;;;;;5115647;28;20035;-81
2023/06/01 06:11:41;;;;;;;5.68;2.00;;;22.40;56.40;;;;;;5114311;28;20044;-82
2023/06/01 06:14:07;;;;;;;4.57;2.00;;;22.50;56.00;;;;;;5116656;28;20051;-76
2023/06/01 06:16:33;;;;;;;7.30;2.20;;;22.60;56.20;;;;;;5117011;28;20062;-81
2023/06/01 06:18:59;;;;;;;3.20;1.30;;;22.70;55.70;;;;;;5115636;28;20063;-82
2023/06/01 06:21:25;;;;;;;2.63;1.73;;;22.70;55.90;;;;;;5114687;28;20051;-83
2023/06/01 06:23:51;;;;;;;3.83;1.88;;;22.80;55.10;;;;;;5114441;28;20166;-78
2023/06/01 06:26:17;;;;;;;3.08;2.00;;;22.90;54.60;;;;;;5114371;28;20055;-78
2023/06/01 06:28:42;;;;;;;4.05;2.03;;;23.00;54.50;;;;;;5095289;28;20039;-78
2023/06/01 06:31:08;;;;;;;5.00;1.98;;;23.10;54.80;;;;;;5112974;28;20071;-77
2023/06/01 06:33:35;;;;;;;3.78;1.80;;;23.10;54.30;;;;;;5114717;28;20035;-78
2023/06/01 06:36:01;;;;;;;2.28;1.80;;;23.20;54.50;;;;;;5114486;27;20114;-76
2023/06/01 06:38:27;;;;;;;5.35;2.10;;;23.30;53.90;;;;;;5117928;27;20831;-76
2023/06/01 06:40:53;;;;;;;4.63;1.85;;;23.30;54.10;;;;;;5099966;27;20088;-80
2023/06/01 06:43:19;;;;;;;3.60;2.10;;;23.50;54.10;;;;;;5120243;27;20031;-82
2023/06/01 06:45:45;;;;;;;6.22;2.00;;;23.50;53.60;;;;;;5119088;27;20401;-76
2023/06/01 06:48:11;;;;;;;5.15;1.77;;;23.60;52.90;;;;;;5117291;27;20028;-77
2023/06/01 06:50:37;;;;;;;2.58;1.65;;;23.70;53.10;;;;;;5100301;27;20034;-76
2023/06/01 06:53:03;;;;;;;2.30;1.73;;;23.80;52.50;;;;;;5118695;27;20036;-75
2023/06/01 06:55:29;;;;;;;4.95;1.55;;;23.90;53.20;;;;;;5099796;27;20046;-76
2023/06/01 06:57:55;;;;;;;3.58;1.80;;;24.00;52.20;;;;;;5118443;27;20442;-75
2023/06/01 07:00:22;;;;;;;3.50;1.80;;;24.00;52.90;;;;;;5118114;27;20136;-76
2023/06/01 07:02:48;;;;;;;2.38;1.40;;;24.10;52.30;;;;;;5118840;27;20028;-75
2023/06/01 07:05:14;;;;;;;2.03;1.27;;;24.20;51.70;;;;;;5118997;27;20034;-76
2023/06/01 07:07:41;;;;;;;3.53;1.70;;;24.30;51.50;;;;;;5118982;27;20027;-76
2023/06/01 07:10:07;;;;;;;4.03;1.52;;;24.30;51.00;;;;;;5100132;27;20035;-76
2023/06/01 07:12:33;;;;;;;4.28;1.60;;;24.40;51.30;;;;;;5119100;27;20122;-77
2023/06/01 07:15:00;;;;;;;6.63;1.60;;;24.50;51.20;;;;;;5099610;27;20088;-76
2023/06/01 07:17:26;;;;;;;3.72;1.80;;;24.60;50.50;;;;;;5117975;27;20451;-75
2023/06/01 07:19:52;;;;;;;3.78;1.60;;;24.60;50.40;;;;;;5117570;27;20035;-75
2023/06/01 07:22:20;;;;;;;3.63;1.60;;;24.70;51.10;;;;;;5118323;27;20043;-76
2023/06/01 07:24:47;;;;;;;4.07;1.85;;;24.70;50.90;;;;;;5117705;27;20125;-76
2023/06/01 07:27:14;;;;;;;4.57;1.77;;;24.80;50.20;;;;;;5074794;27;20034;-75
2023/06/01 07:29:41;;;;;;;6.43;1.80;;;24.80;48.60;;;;;;5116932;27;20043;-75
2023/06/01 07:32:07;;;;;;;5.28;1.90;;;24.90;48.70;;;;;;5117620;27;20035;-76
2023/06/01 07:34:36;;;;;;;7.40;1.98;;;24.90;49.00;;;;;;5117966;27;20171;-75
2023/06/01 07:37:03;;;;;;;7.57;1.90;;;24.90;50.10;;;;;;5118040;27;20038;-78
2023/06/01 07:39:29;;;;;;;6.25;1.70;;;24.90;51.80;;;;;;5116846;27;20343;-76
2023/06/01 07:41:56;;;;;;;4.57;1.88;;;24.80;52.40;;;;;;5120649;27;20095;-76
2023/06/01 07:44:22;;;;;;;6.47;1.60;;;24.80;51.80;;;;;;5124888;27;20372;-76
2023/06/01 07:46:48;;;;;;;4.53;1.55;;;24.80;49.90;;;;;;5130753;27;20039;-75
2023/06/01 07:49:15;;;;;;;5.45;2.03;;;24.80;51.00;;;;;;5118299;27;20485;-77
2023/06/01 07:51:42;;;;;;;6.80;1.80;;;24.80;51.50;;;;;;5116834;27;20147;-74
2023/06/01 07:54:09;;;;;;;3.58;1.38;;;24.80;52.00;;;;;;5117802;27;20027;-74
2023/06/01 07:56:35;;;;;;;5.00;1.80;;;24.80;51.90;;;;;;5098684;27;20108;-76
2023/06/01 07:59:01;;;;;;;6.38;1.80;;;24.80;51.40;;;;;;5116589;27;20043;-74
2023/06/01 08:01:28;;;;;;;3.20;1.67;;;24.80;52.20;;;;;;5117769;27;20929;-75
2023/06/01 08:03:55;;;;;;;5.85;1.23;;;24.80;51.40;;;;;;5098976;27;20043;-76
2023/06/01 08:06:26;;;;;;;4.90;1.52;;;24.70;52.80;;;;;;5116857;27;20039;-76
2023/06/01 08:08:52;;;;;;;4.75;1.67;;;24.80;52.80;;;;;;5116829;27;20524;-77
2023/06/01 08:11:18;;;;;;;4.80;1.55;;;24.70;52.60;;;;;;5117107;27;20032;-76
2023/06/01 08:13:47;;;;;;;5.45;1.33;;;24.70;52.50;;;;;;5116621;27;20027;-77
2023/06/01 08:16:13;;;;;;;7.32;1.50;;;24.70;52.40;;;;;;5097124;27;20035;-76
2023/06/01 08:18:39;;;;;;;5.18;1.90;;;24.70;53.10;;;;;;5116315;27;20027;-73
2023/06/01 08:21:08;;;;;;;3.17;1.30;;;24.70;52.80;;;;;;5117263;27;20058;-73
2023/06/01 08:23:35;;;;;;;6.95;1.48;;;24.70;50.10;;;;;;5117272;27;20065;-74
2023/06/01 08:26:01;;;;;;;7.38;1.70;;;24.70;52.00;;;;;;5116307;27;20072;-73
2023/06/01 08:28:27;;;;;;;6.32;1.60;;;24.60;51.00;;;;;;5117926;27;20031;-74
2023/06/01 08:30:53;;;;;;;3.10;1.90;;;24.70;49.70;;;;;;5116342;27;20394;-75
2023/06/01 08:33:19;;;;;;;8.82;1.67;;;24.70;49.90;;;;;;5123652;27;20032;-76
2023/06/01 08:35:45;;;;;;;4.20;1.23;;;24.70;48.60;;;;;;5114993;27;20039;-74
2023/06/01 08:38:11;;;;;;;7.90;2.10;;;24.60;50.50;;;;;;5113466;27;20038;-75
2023/06/01 08:40:37;;;;;;;7.88;1.75;;;24.60;49.70;;;;;;5115942;27;20035;-78
2023/06/01 08:43:27;;;;;;;3.47;1.70;;;24.60;49.80;;;;;;5116117;27;20031;-78
2023/06/01 08:45:56;;;;;;;4.28;1.70;;;24.60;51.00;;;;;;5094885;27;20061;-73
2023/06/01 08:48:23;;;;;;;3.10;1.40;;;24.60;50.80;;;;;;5095391;27;20054;-77
2023/06/01 08:50:50;;;;;;;3.85;1.73;;;24.60;49.10;;;;;;5094644;27;20117;-77
2023/06/01 08:53:21;;;;;;;3.53;1.58;;;24.60;49.70;;;;;;5115507;27;20088;-78
2023/06/01 08:55:55;;;;;;;5.00;1.67;;;24.60;49.30;;;;;;5113330;27;20031;-74
2023/06/01 08:58:21;;;;;;;4.68;1.70;;;24.60;49.10;;;;;;5115738;27;20055;-78
2023/06/01 09:00:51;;;;;;;5.40;1.55;;;24.60;49.20;;;;;;5113151;27;20027;-76
2023/06/01 09:03:17;;;;;;;2.80;1.45;;;24.60;48.80;;;;;;5115284;27;20066;-75
2023/06/01 09:05:43;;;;;;;2.20;1.40;;;24.60;48.80;;;;;;5096796;27;20035;-75
2023/06/01 09:08:10;;;;;;;5.28;1.80;;;24.60;49.20;;;;;;5094108;27;20064;-75
2023/06/01 09:10:36;;;;;;;5.65;1.92;;;24.60;48.50;;;;;;5115770;27;20034;-74
2023/06/01 09:13:03;;;;;;;4.82;1.95;;;24.60;48.80;;;;;;5113257;27;20039;-75
2023/06/01 09:15:29;;;;;;;4.72;2.08;;;24.60;49.00;;;;;;5114568;27;20035;-74
2023/06/01 09:18:10;;;;;;;4.47;1.80;;;24.60;49.00;;;;;;5112885;27;20027;-74
2023/06/01 09:20:38;;;;;;;7.45;1.88;;;24.60;49.40;;;;;;5115363;27;20032;-75
2023/06/01 09:23:04;;;;;;;3.55;1.50;;;24.60;49.50;;;;;;5112094;27;20150;-77
2023/06/01 09:25:32;;;;;;;4.15;1.55;;;24.60;48.60;;;;;;5115391;27;20520;-77
2023/06/01 09:28:00;;;;;;;4.22;1.48;;;24.60;49.40;;;;;;5112979;27;20054;-78
2023/06/01 09:30:41;;;;;;;2.97;1.30;;;24.60;49.00;;;;;;5113109;27;20042;-77
2023/06/01 09:33:15;;;;;;;7.30;1.65;;;24.60;49.00;;;;;;5114595;27;20092;-77
2023/06/01 09:35:44;;;;;;;4.95;1.70;;;24.50;48.30;;;;;;5082725;27;20051;-80
2023/06/01 09:38:11;;;;;;;4.25;1.45;;;24.60;49.70;;;;;;5095005;27;20154;-76
2023/06/01 09:40:39;;;;;;;3.28;1.55;;;24.60;49.50;;;;;;5114696;27;20035;-76
2023/06/01 09:43:21;;;;;;;2.60;1.38;;;24.50;49.10;;;;;;5114258;27;20102;-77
2023/06/01 09:46:05;;;;;;;3.20;1.65;;;24.50;47.90;;;;;;5114655;27;20579;-77
2023/06/01 09:48:31;;;;;;;2.25;1.52;;;24.50;47.70;;;;;;5112913;28;20068;-77
2023/06/01 09:50:57;;;;;;;2.95;1.30;;;24.50;48.00;;;;;;5113616;27;20110;-78
2023/06/01 09:53:24;;;;;;;4.38;1.83;;;24.50;47.30;;;;;;5113418;28;20172;-77
2023/06/01 09:56:01;;;;;;;5.25;1.88;;;24.50;48.00;;;;;;5113571;27;20040;-76
2023/06/01 09:58:27;;;;;;;6.30;1.52;;;24.40;47.60;;;;;;5114265;28;20023;-80
2023/06/01 10:00:54;;;;;;;4.65;1.85;;;24.40;47.60;;;;;;5113790;27;20031;-78
2023/06/01 10:03:22;;;;;;;2.70;1.73;;;24.40;47.80;;;;;;5111972;27;20103;-79
2023/06/01 10:05:49;;;;;;;2.88;1.65;;;24.40;47.40;;;;;;5113939;28;20389;-75
2023/06/01 10:08:17;;;;;;;2.97;1.67;;;24.40;47.90;;;;;;5111768;28;20927;-75
2023/06/01 10:10:48;;;;;;;6.00;1.70;;;24.40;47.50;;;;;;5114237;28;20509;-76
2023/06/01 10:13:15;;;;;;;3.83;1.48;;;24.40;47.30;;;;;;5117440;27;20433;-77
2023/06/01 10:15:41;;;;;;;5.40;1.75;;;24.40;47.40;;;;;;5117833;27;20031;-77
2023/06/01 10:18:07;;;;;;;2.95;1.70;;;24.40;47.80;;;;;;5097613;27;20031;-76
2023/06/01 10:20:35;;;;;;;6.03;1.70;;;24.40;47.70;;;;;;5098303;27;20521;-78
2023/06/01 10:23:02;;;;;;;2.70;1.58;;;24.30;47.60;;;;;;5117726;27;20396;-79
2023/06/01 10:25:49;;;;;;;3.22;1.52;;;24.30;48.10;;;;;;5116187;27;20039;-77
2023/06/01 10:28:17;;;;;;;2.38;1.33;;;24.30;47.50;;;;;;5117877;27;20076;-79
2023/06/01 10:30:43;;;;;;;1.98;1.77;;;24.30;48.30;;;;;;5116450;27;20036;-81
2023/06/01 10:33:09;;;;;;;5.63;1.83;;;24.30;48.00;;;;;;5118813;27;20051;-79
2023/06/01 10:35:40;;;;;;;6.60;1.60;;;24.30;47.80;;;;;;5118279;27;20034;-78
2023/06/01 10:38:06;;;;;;;3.47;1.60;;;24.30;47.20;;;;;;5119554;27;20038;-77
2023/06/01 10:40:39;;;;;;;2.13;1.73;;;24.30;47.50;;;;;;5117248;27;20043;-76
2023/06/01 10:43:08;;;;;;;4.03;1.40;;;24.30;47.20;;;;;;5118376;27;20443;-77
2023/06/01 10:45:34;;;;;;;4.47;1.58;;;24.20;47.20;;;;;;5117105;27;20479;-78
2023/06/01 10:48:02;;;;;;;5.40;1.60;;;24.30;47.80;;;;;;5117254;27;20084;-76
2023/06/01 10:50:28;;;;;;;3.95;1.40;;;24.20;47.60;;;;;;5118019;27;20038;-81
2023/06/01 10:52:55;;;;;;;2.33;1.33;;;24.20;48.10;;;;;;5116467;27;20035;-76
2023/06/01 10:55:22;;;;;;;5.35;1.65;;;24.20;47.30;;;;;;5118823;27;20481;-78
2023/06/01 10:57:49;;;;;;;5.75;1.63;;;24.20;47.50;;;;;;5099200;27;20865;-75
2023/06/01 11:00:28;;;;;;;2.67;1.45;;;24.20;47.60;;;;;;5099924;27;20031;-75
2023/06/01 11:03:03;;;;;;;8.52;1.77;;;24.20;47.40;;;;;;5117624;27;20406;-78
2023/06/01 11:05:48;;;;;;;8.82;1.92;;;24.20;48.60;;;;;;5117202;27;20035;-75
2023/06/01 11:08:17;;;;;;;5.28;1.95;;;24.20;48.90;;;;;;5117553;27;20058;-76
2023/06/01 11:10:52;;;;;;;4.97;1.63;;;24.10;48.80;;;;;;5117342;27;20076;-75
2023/06/01 11:13:22;;;;;;;;;;;24.20;48.60;;;;;;5118788;27;20402;-76
2023/06/01 11:16:22;;;;;;;5.20;2.10;;;24.20;49.60;;;;;;5117898;27;20041;-78
2023/06/01 11:19:21;;;;;;;4.78;1.92;;;24.20;49.20;;;;;;5117190;27;20031;-75
2023/06/01 11:21:47;;;;;;;6.25;2.40;;;24.20;49.40;;;;;;5112766;27;20095;-77
2023/06/01 11:24:14;;;;;;;7.15;2.60;;;24.20;49.70;;;;;;5115638;27;20042;-76
2023/06/01 11:26:47;;;;;;;6.95;2.00;;;24.20;50.50;;;;;;5117915;27;20167;-76
2023/06/01 11:29:22;;;;;;;7.47;2.42;;;24.20;49.90;;;;;;5098547;27;20096;-76
2023/06/01 11:31:53;;;;;;;7.40;2.35;;;24.20;49.60;;;;;;5117698;27;20300;-74
2023/06/01 11:34:28;;;;;;;6.78;2.38;;;24.20;49.20;;;;;;5116025;27;20463;-77
2023/06/01 11:36:58;;;;;;;4.65;1.98;;;24.10;49.50;;;;;;5115362;27;20031;-76
2023/06/01 11:39:30;;;;;;;9.48;2.22;;;24.10;49.20;;;;;;5131161;27;20050;-76
2023/06/01 11:42:11;;;;;;;5.68;2.00;;;24.10;48.90;;;;;;5097642;27;20050;-76
2023/06/01 11:44:39;;;;;;;6.13;2.00;;;24.10;48.80;;;;;;5086707;27;20035;-79
2023/06/01 11:47:07;;;;;;;7.47;2.17;;;24.10;48.90;;;;;;5118149;27;20048;-76
2023/06/01 11:49:44;;;;;;;7.13;2.00;;;24.10;48.90;;;;;;5099996;27;20038;-77
2023/06/01 11:52:10;;;;;;;8.43;2.00;;;24.10;48.70;;;;;;5116626;27;20053;-75
2023/06/01 11:54:37;;;;;;;5.03;1.90;;;24.10;48.70;;;;;;5117223;27;20031;-76
2023/06/01 11:57:05;;;;;;;3.95;1.73;;;24.10;48.40;;;;;;5116900;27;20032;-76
2023/06/01 11:59:39;;;;;;;6.78;1.75;;;24.00;48.60;;;;;;5117453;27;20344;-75
2023/06/01 12:02:25;;;;;;;4.72;2.03;;;24.00;48.70;;;;;;5116331;27;20393;-75
2023/06/01 12:05:08;;;;;;;3.78;1.92;;;24.10;48.40;;;;;;5098284;27;20469;-78
2023/06/01 12:07:54;;;;;;;6.10;1.90;;;24.00;47.70;;;;;;5118217;27;20497;-77
2023/06/01 12:10:21;;;;;;;3.55;1.90;;;24.00;47.60;;;;;;5117482;27;20360;-78
2023/06/01 12:12:47;;;;;;;2.85;1.58;;;24.00;47.70;;;;;;5117595;27;20100;-76
2023/06/01 12:15:15;;;;;;;6.22;1.70;;;24.00;47.10;;;;;;5117735;27;20033;-76
2023/06/01 12:17:51;;;;;;;3.78;1.88;;;24.00;48.20;;;;;;5116529;27;20028;-77
2023/06/01 12:20:31;;;;;;;4.93;1.80;;;24.00;48.10;;;;;;5116324;27;20477;-77
2023/06/01 12:23:05;;;;;;;5.40;1.60;;;24.00;47.70;;;;;;5116950;27;20035;-76
2023/06/01 12:25:31;;;;;;;2.58;1.63;;;24.00;47.40;;;;;;5116596;27;20038;-76
2023/06/01 12:28:08;;;;;;;3.13;1.77;;;23.90;46.70;;;;;;5115304;27;20414;-76
2023/06/01 12:30:34;;;;;;;3.88;1.70;;;24.00;47.30;;;;;;5116493;27;20047;-77
2023/06/01 12:33:01;;;;;;;2.10;1.67;;;24.00;47.60;;;;;;5116863;27;20035;-77
2023/06/01 12:35:27;;;;;;;4.10;1.67;;;24.00;47.80;;;;;;5116286;27;20375;-76
2023/06/01 12:38:06;;;;;;;4.10;1.95;;;23.90;47.90;;;;;;5116445;27;20038;-77
2023/06/01 12:40:36;;;;;;;6.03;1.80;;;24.00;48.00;;;;;;5114518;27;20043;-74
2023/06/01 12:43:06;;;;;;;2.78;1.75;;;24.00;48.10;;;;;;5116447;27;20039;-76
2023/06/01 12:45:39;;;;;;;5.43;2.28;;;23.90;48.90;;;;;;5115665;27;20032;-77
2023/06/01 12:48:06;;;;;;;4.70;1.90;;;23.90;49.70;;;;;;5116650;27;20027;-76
2023/06/01 12:50:32;;;;;;;3.08;2.03;;;24.00;50.40;;;;;;5116956;27;20031;-75
2023/06/01 12:52:58;;;;;;;4.80;2.00;;;23.90;50.00;;;;;;5116404;27;20398;-76
2023/06/01 12:55:24;;;;;;;3.83;1.85;;;23.90;50.20;;;;;;5116636;27;20039;-76
2023/06/01 12:57:54;;;;;;;5.10;2.00;;;23.90;50.00;;;;;;5116005;27;20031;-75